Flight Track Log - Related Links

Times and Time Zones

All times are in EDT time to prevent confusion due to time zone crossing. See the SWA3937 flight status page for this flight to view local times or setup timezone preferences in your user account.

Time Position Orientation Groundspeed Altitude Reporting Facility
EDT Latitude Longitude Course Direction KTS MPH feet Rate Location/Type
Wed 12:42:25 PM 33.9667 -117.5667 148° Southeast 224 258 5,300  Level Southern California TRACON
Wed 12:43:25 PM 33.9000 -117.5167 148° Southeast 286 329 6,900 1,030 Climbing Southern California TRACON
Wed 12:44:04 PM 33.8656 -117.4856 143° Southeast 275 316 7,000 238 Climbing Los Angeles Center
Wed 12:45:06 PM 33.8003 -117.4292 144° Southeast 285 328 7,300 1,839 Climbing Los Angeles Center
Wed 12:46:08 PM 33.7317 -117.3736 146° Southeast 292 336 10,800 3,242 Climbing Los Angeles Center
Wed 12:47:10 PM 33.6542 -117.3097 146° Southeast 323 372 14,000 2,855 Climbing Los Angeles Center
Wed 12:48:12 PM 33.5994 -117.2103 123° Southeast 363 418 16,700 2,661 Climbing Los Angeles Center
Wed 12:49:14 PM 33.5558 -117.0558 109° East 398 458 19,500 2,516 Climbing Los Angeles Center
Wed 12:50:16 PM 33.5653 -116.9125 85° East 421 484 21,900 2,565 Climbing Los Angeles Center
Wed 12:51:18 PM 33.5783 -116.7653 84° East 437 503 24,800 2,544 Climbing Los Angeles Center
Wed 12:52:21 PM 33.5903 -116.6197 84° East 439 505 27,200 2,016 Climbing Los Angeles Center
Wed 12:53:23 PM 33.6025 -116.4686 84° East 452 520 29,000 1,597 Climbing Los Angeles Center
Wed 12:54:25 PM 33.6150 -116.3083 85° East 475 547 30,500 1,258 Climbing Los Angeles Center
Wed 12:55:27 PM 33.6261 -116.1394 85° East 506 582 31,600 919 Climbing Los Angeles Center
Wed 12:56:29 PM 33.6228 -115.9236 91° East 538 619 32,400 677 Climbing Los Angeles Center
Wed 12:57:31 PM 33.6181 -115.7325 92° East 572 658 33,000 242 Climbing Los Angeles Center
Wed 12:58:33 PM 33.6125 -115.5372 92° East 583 671 32,900  Descending Los Angeles Center
Wed 12:59:35 PM 33.6086 -115.3450 91° East 579 666 33,000 48 Climbing Los Angeles Center
Wed 01:00:37 PM 33.6042 -115.1531 92° East 576 663 33,000 -48 Level Los Angeles Center
Wed 01:01:40 PM 33.5994 -114.9606 92° East 577 664 32,900  Descending Los Angeles Center
Wed 01:02:42 PM 33.5883 -114.7283 93° East 581 669 33,000 -919 Climbing Los Angeles Center
Wed 01:03:44 PM 33.5511 -114.5397 103° East 578 665 31,000 -2,049 Descending Los Angeles Center
Wed 01:04:04 PM 33.5444 -114.4797 98° East 582 670 30,200 -2,341 Descending Albuquerque Center
Wed 01:05:06 PM 33.5072 -114.2989 104° East 567 652 27,800 -2,323 Descending Albuquerque Center
Wed 01:06:08 PM 33.4722 -114.1242 103° East 547 629 25,400 -1,403 Descending Albuquerque Center
Wed 01:07:10 PM 33.4389 -113.9608 104° East 517 595 24,900 -194 Descending Albuquerque Center
Wed 01:08:12 PM 33.4067 -113.7994 103° East 503 579 25,000 -435 Climbing Albuquerque Center
Wed 01:09:14 PM 33.3683 -113.6069 103° East 497 572 24,000 -1,500 Descending Albuquerque Center
Wed 01:10:16 PM 33.3358 -113.4506 104° East 488 562 21,900 -2,032 Descending Albuquerque Center
Wed 01:11:18 PM 33.3044 -113.2981 104° East 478 550 19,800 -1,984 Descending Albuquerque Center
Wed 01:12:20 PM 33.2747 -113.1508 104° East 463 533 17,800 -1,355 Descending Albuquerque Center
Wed 01:13:22 PM 33.2753 -113.0064 90° East 438 504 17,000 -726 Descending Albuquerque Center
Wed 01:14:24 PM 33.2794 -112.8736 88° East 412 474 16,300 -532 Descending Albuquerque Center
Wed 01:15:26 PM 33.2817 -112.7303 89° East 372 428 15,900 -919 Descending Albuquerque Center
Wed 01:16:28 PM 33.2831 -112.6128 89° East 358 412 14,400 -1,488 Descending Albuquerque Center
Wed 01:17:31 PM 33.2886 -112.4989 87° East 338 389 12,800 -1,452 Descending Albuquerque Center
Wed 01:18:32 PM 33.2917 -112.3922 88° East 324 373 11,400 -1,065 Descending Albuquerque Center
Wed 01:19:35 PM 33.2964 -112.2911 87° East 308 354 10,600 -864 Descending Albuquerque Center
Wed 01:20:37 PM 33.3033 -112.1969 85° East 288 331 9,600 -774 Descending Albuquerque Center
Wed 01:21:39 PM 33.3103 -112.1047 85° East 281 323 9,000 -919 Descending Albuquerque Center
Wed 01:22:41 PM 33.3336 -112.0067 74° East 256 295 7,700 -968 Descending Albuquerque Center
Wed 01:23:43 PM 33.3461 -111.9233 80° East 261 300 7,000 -871 Descending Albuquerque Center
Wed 01:24:45 PM 33.3450 -111.8425 91° East 246 283 5,900 -1,306 Descending Albuquerque Center
Wed 01:25:47 PM 33.3731 -111.7825 61° Northeast 238 274 4,300 -1,161 Descending Albuquerque Center
Wed 01:26:49 PM 33.4025 -111.8269 308° West 183 211 3,500 -629 Descending Albuquerque Center
Wed 01:27:51 PM 33.4203 -111.8767 293° West 165 190 3,000 -581 Descending Albuquerque Center
Wed 01:28:53 PM 33.4283 -111.9319 280° West 147 169 2,300 -677 Descending Albuquerque Center
Wed 01:29:55 PM 33.4294 -111.9753 272° West 134 154 1,600 -581 Descending Albuquerque Center
Wed 01:30:57 PM 33.4281 -112.0169 268° West 136 157 1,100 -484 Descending Albuquerque Center

Login

Don't have an account? Register now (free) for customized features, flight alerts, and more!